createdAt,value
2022-08-24T00:01:56.127Z,82.12
2022-08-24T00:04:24.328Z,82.14
2022-08-24T00:06:51.927Z,82.14
2022-08-24T00:09:18.996Z,82.12
2022-08-24T00:11:46.925Z,82.12
2022-08-24T00:14:14.591Z,82.06
2022-08-24T00:16:42.309Z,82.10
2022-08-24T00:19:10.734Z,82.19
2022-08-24T00:21:38.138Z,82.23
2022-08-24T00:24:05.646Z,81.95
2022-08-24T00:26:34.727Z,82.06
2022-08-24T00:29:06.799Z,82.15
2022-08-24T00:31:35.593Z,82.00
2022-08-24T00:34:03.107Z,82.07
2022-08-24T00:36:30.092Z,82.16
2022-08-24T00:38:57.381Z,82.18
2022-08-24T00:41:24.769Z,82.15
2022-08-24T00:43:58.018Z,82.21
2022-08-24T00:46:34.429Z,82.14
2022-08-24T00:49:09.218Z,82.14
2022-08-24T00:51:49.707Z,82.28
2022-08-24T00:54:18.216Z,82.33
2022-08-24T00:56:51.522Z,82.41
2022-08-24T00:59:23.626Z,82.64
2022-08-24T01:01:53.425Z,82.55
2022-08-24T01:04:40.364Z,82.70
2022-08-24T01:07:07.516Z,82.52
2022-08-24T01:09:34.665Z,82.77
2022-08-24T01:12:02.215Z,82.53
2022-08-24T01:14:29.780Z,82.43
2022-08-24T01:17:15.999Z,82.37
2022-08-24T01:19:47.217Z,82.63
2022-08-24T01:22:29.977Z,82.62
2022-08-24T01:24:57.191Z,82.86
2022-08-24T01:27:27.904Z,82.72
2022-08-24T01:29:58.440Z,82.97
2022-08-24T01:32:27.500Z,83.13
2022-08-24T01:34:55.962Z,83.09
2022-08-24T01:37:24.058Z,83.20
2022-08-24T01:39:55.376Z,83.25
2022-08-24T01:42:22.616Z,83.38
2022-08-24T01:44:49.831Z,83.51
2022-08-24T01:47:17.295Z,83.42
2022-08-24T01:49:47.163Z,83.55
2022-08-24T01:52:21.110Z,83.41
2022-08-24T01:54:49.567Z,83.70
2022-08-24T01:57:17.154Z,83.78
2022-08-24T01:59:44.310Z,83.66
2022-08-24T02:02:17.329Z,83.57
2022-08-24T02:04:44.423Z,83.66
2022-08-24T02:07:12.979Z,83.53
2022-08-24T02:09:40.828Z,83.75
2022-08-24T02:12:08.462Z,83.76
2022-08-24T02:14:35.869Z,83.56
2022-08-24T02:17:05.831Z,83.37
2022-08-24T02:19:33.585Z,83.21
2022-08-24T02:22:01.242Z,83.09
2022-08-24T02:24:30.071Z,83.01
2022-08-24T02:26:57.400Z,83.13
2022-08-24T02:29:24.845Z,83.07
2022-08-24T02:31:51.878Z,83.11
2022-08-24T02:34:19.171Z,82.98
2022-08-24T02:36:46.463Z,82.96
2022-08-24T02:39:13.745Z,82.93
2022-08-24T02:41:41.437Z,82.79
2022-08-24T02:44:08.969Z,82.75
2022-08-24T02:46:36.426Z,82.74
2022-08-24T02:49:11.185Z,82.78
2022-08-24T02:51:44.360Z,82.51
2022-08-24T02:54:17.321Z,82.76
2022-08-24T02:56:44.776Z,82.51
2022-08-24T02:59:11.861Z,82.58
2022-08-24T03:01:39.513Z,82.62
2022-08-24T03:04:06.553Z,82.32
2022-08-24T03:06:33.630Z,82.59
2022-08-24T03:09:00.756Z,82.46
2022-08-24T03:11:28.544Z,82.43
2022-08-24T03:13:58.635Z,82.54
2022-08-24T03:16:30.106Z,82.61
2022-08-24T03:18:57.847Z,82.24
2022-08-24T03:21:25.062Z,82.62
2022-08-24T03:23:52.475Z,82.50
2022-08-24T03:26:19.895Z,82.46
2022-08-24T03:28:47.971Z,82.51
2022-08-24T03:31:18.154Z,82.29
2022-08-24T03:33:45.245Z,82.41
2022-08-24T03:36:14.275Z,82.53
2022-08-24T03:38:42.618Z,82.76
2022-08-24T03:41:10.786Z,82.54
2022-08-24T03:43:48.636Z,82.64
2022-08-24T03:46:20.090Z,82.81
2022-08-24T03:48:48.612Z,82.85
2022-08-24T03:51:18.981Z,82.62
2022-08-24T03:53:46.067Z,82.48
2022-08-24T03:56:13.122Z,82.46
2022-08-24T03:58:41.337Z,82.26
2022-08-24T04:01:09.044Z,82.12
2022-08-24T04:03:38.207Z,82.06
2022-08-24T04:06:06.798Z,82.29
2022-08-24T04:08:34.919Z,82.25
2022-08-24T04:11:03.050Z,82.05
2022-08-24T04:13:31.619Z,82.21
2022-08-24T04:16:04.971Z,82.27
2022-08-24T04:18:32.343Z,82.15
2022-08-24T04:20:59.410Z,82.10
2022-08-24T04:23:46.623Z,82.11
2022-08-24T04:26:14.701Z,81.91
2022-08-24T04:28:42.259Z,81.63
2022-08-24T04:31:09.343Z,81.67
2022-08-24T04:33:39.499Z,81.54
2022-08-24T04:36:08.868Z,81.70
2022-08-24T04:38:37.178Z,81.74
2022-08-24T04:41:06.867Z,81.73
2022-08-24T04:43:34.461Z,81.73
2022-08-24T04:46:04.591Z,81.85
2022-08-24T04:48:32.269Z,82.00
2022-08-24T04:51:06.438Z,81.85
2022-08-24T04:53:33.737Z,81.96
2022-08-24T04:56:01.486Z,81.75
2022-08-24T04:58:29.142Z,81.81
2022-08-24T05:00:56.094Z,81.49
2022-08-24T05:03:23.195Z,81.73
2022-08-24T05:05:50.704Z,81.76
2022-08-24T05:08:18.797Z,81.84
2022-08-24T05:10:47.573Z,81.73
2022-08-24T05:13:14.808Z,82.10
2022-08-24T05:15:42.952Z,82.08
2022-08-24T05:18:10.237Z,82.04
2022-08-24T05:20:40.881Z,81.88
2022-08-24T05:23:07.967Z,81.81
2022-08-24T05:25:35.385Z,82.10
2022-08-24T05:28:02.274Z,81.98
2022-08-24T05:30:29.298Z,81.96
2022-08-24T05:32:56.182Z,81.95
2022-08-24T05:35:22.962Z,81.97
2022-08-24T05:37:49.769Z,82.12
2022-08-24T05:40:18.456Z,82.08
2022-08-24T05:42:45.221Z,82.27
2022-08-24T05:45:12.408Z,82.11
2022-08-24T05:47:39.433Z,82.06
2022-08-24T05:50:06.827Z,82.22
2022-08-24T05:52:34.622Z,82.20
2022-08-24T05:55:01.851Z,82.10
2022-08-24T05:57:31.413Z,82.23
2022-08-24T05:59:58.223Z,81.93
2022-08-24T06:02:25.106Z,82.02
2022-08-24T06:04:52.056Z,81.94
2022-08-24T06:07:18.794Z,82.14
2022-08-24T06:09:45.832Z,82.22
2022-08-24T06:12:12.779Z,82.17
2022-08-24T06:14:39.635Z,82.18
2022-08-24T06:17:07.477Z,82.18
2022-08-24T06:19:35.627Z,82.03
2022-08-24T06:22:02.843Z,82.19
2022-08-24T06:24:48.224Z,81.91
2022-08-24T06:27:21.867Z,81.98
2022-08-24T06:29:54.050Z,82.03
2022-08-24T06:32:21.174Z,82.14
2022-08-24T06:34:48.302Z,82.08
2022-08-24T06:37:15.689Z,81.96
2022-08-24T06:39:42.424Z,81.84
2022-08-24T06:42:10.577Z,81.68
2022-08-24T06:44:37.914Z,81.79
2022-08-24T06:47:04.991Z,81.86
2022-08-24T06:49:31.863Z,81.53
2022-08-24T06:51:59.783Z,81.62
2022-08-24T06:54:26.708Z,81.43
2022-08-24T06:56:54.867Z,81.31
2022-08-24T06:59:22.142Z,81.30
2022-08-24T07:01:49.014Z,81.21
2022-08-24T07:04:16.115Z,81.28
2022-08-24T07:06:43.049Z,81.18
2022-08-24T07:09:10.138Z,81.14
2022-08-24T07:11:36.881Z,81.23
2022-08-24T07:14:04.311Z,81.26
2022-08-24T07:16:31.262Z,81.07
2022-08-24T07:18:58.487Z,81.30
2022-08-24T07:21:27.835Z,81.41
2022-08-24T07:23:55.972Z,81.14
2022-08-24T07:26:23.812Z,81.35
2022-08-24T07:28:51.794Z,81.36
2022-08-24T07:31:18.858Z,81.21
2022-08-24T07:33:46.123Z,81.42
2022-08-24T07:36:16.932Z,81.26
2022-08-24T07:38:52.601Z,81.50
2022-08-24T07:44:08.443Z,81.33
2022-08-24T07:46:35.410Z,81.31
2022-08-24T07:49:11.021Z,81.48
2022-08-24T07:51:48.149Z,81.54
2022-08-24T07:54:15.469Z,81.54
2022-08-24T07:56:42.350Z,81.61
2022-08-24T07:59:13.074Z,81.37
2022-08-24T08:01:41.063Z,81.37
2022-08-24T08:04:08.482Z,81.40
2022-08-24T08:06:36.338Z,81.30
2022-08-24T08:09:04.802Z,81.23
2022-08-24T08:11:31.807Z,81.36
2022-08-24T08:13:58.853Z,81.45
2022-08-24T08:16:25.824Z,81.62
2022-08-24T08:19:09.195Z,81.64
2022-08-24T08:22:06.433Z,81.63
2022-08-24T08:24:33.418Z,81.63
2022-08-24T08:27:04.613Z,81.57
2022-08-24T08:29:44.971Z,81.23
2022-08-24T08:32:23.777Z,81.21
2022-08-24T08:48:36.371Z,80.86
2022-08-24T08:59:56.977Z,80.96
2022-08-24T09:00:27.661Z,80.92
2022-08-24T09:02:42.723Z,80.90
2022-08-24T09:05:15.459Z,80.46
2022-08-24T09:20:31.781Z,78.81
2022-08-24T09:23:26.338Z,78.45
2022-08-24T09:26:10.978Z,78.51
2022-08-24T09:28:50.071Z,78.21
2022-08-24T09:34:42.663Z,78.09
2022-08-24T09:37:26.136Z,78.05
2022-08-24T09:40:05.092Z,77.91
2022-08-24T09:42:52.377Z,77.85
2022-08-24T09:45:20.951Z,77.75
2022-08-24T09:48:16.216Z,78.00
2022-08-24T09:51:13.371Z,78.07
2022-08-24T09:53:55.670Z,77.82
2022-08-24T09:57:11.689Z,77.82
2022-08-24T09:59:52.011Z,77.88
2022-08-24T10:02:51.163Z,78.15
